createdAt,value
2017-11-24T00:00:42.510Z,0
2017-11-24T00:01:43.922Z,0
2017-11-24T00:02:45.368Z,0
2017-11-24T00:03:46.776Z,0
2017-11-24T00:04:48.185Z,0
2017-11-24T00:05:49.598Z,0
2017-11-24T00:06:51.007Z,0
2017-11-24T00:07:52.419Z,0
2017-11-24T00:08:53.826Z,0
2017-11-24T00:09:55.253Z,0
2017-11-24T00:10:56.659Z,0
2017-11-24T00:11:58.074Z,0
2017-11-24T00:12:59.496Z,0
2017-11-24T00:14:00.908Z,0
2017-11-24T00:15:02.321Z,0
2017-11-24T00:16:03.727Z,0
2017-11-24T00:17:05.152Z,0
2017-11-24T00:18:06.565Z,0
2017-11-24T00:19:07.981Z,0
2017-11-24T00:20:09.397Z,0
2017-11-24T00:21:10.806Z,0
2017-11-24T00:22:12.212Z,0
2017-11-24T00:23:13.624Z,0
2017-11-24T00:24:15.034Z,0
2017-11-24T00:25:16.451Z,0
2017-11-24T00:26:17.865Z,0
2017-11-24T00:27:19.272Z,0
2017-11-24T00:28:20.720Z,0
2017-11-24T00:29:22.132Z,0
2017-11-24T00:30:23.543Z,0
2017-11-24T00:31:24.949Z,0
2017-11-24T00:32:26.371Z,0
2017-11-24T00:33:27.800Z,0
2017-11-24T00:34:29.208Z,0
2017-11-24T00:35:30.629Z,0
2017-11-24T00:37:52.464Z,0
2017-11-24T00:38:53.890Z,0
2017-11-24T00:39:55.303Z,0
2017-11-24T00:40:56.732Z,0
2017-11-24T00:41:58.180Z,0
2017-11-24T00:42:59.594Z,0
2017-11-24T00:44:01.010Z,0
2017-11-24T00:45:02.473Z,0
2017-11-24T00:46:03.857Z,0
2017-11-24T00:47:05.270Z,0
2017-11-24T00:48:06.683Z,0
2017-11-24T00:49:08.091Z,0
2017-11-24T00:50:09.512Z,0
2017-11-24T00:51:10.928Z,0
2017-11-24T00:52:12.342Z,0
2017-11-24T00:53:13.768Z,0
2017-11-24T00:54:15.182Z,0
2017-11-24T00:55:16.588Z,0
2017-11-24T00:56:18.015Z,0
2017-11-24T00:57:19.431Z,0
2017-11-24T00:58:20.852Z,0
2017-11-24T00:59:22.269Z,0
2017-11-24T01:00:23.683Z,0
2017-11-24T01:01:25.106Z,0
2017-11-24T01:02:26.522Z,0
2017-11-24T01:03:27.989Z,0
2017-11-24T01:04:29.400Z,0
2017-11-24T01:05:30.816Z,0
2017-11-24T01:06:32.245Z,0
2017-11-24T01:07:33.662Z,0
2017-11-24T01:08:35.074Z,0
2017-11-24T01:09:36.496Z,0
2017-11-24T01:10:37.967Z,0
2017-11-24T01:11:39.386Z,0
2017-11-24T01:12:40.797Z,0
2017-11-24T01:13:42.217Z,0
2017-11-24T01:14:43.626Z,0
2017-11-24T01:15:45.046Z,0
2017-11-24T01:16:46.461Z,0
2017-11-24T01:17:47.883Z,0
2017-11-24T01:18:49.291Z,0
2017-11-24T01:19:50.712Z,0
2017-11-24T01:20:52.128Z,0
2017-11-24T01:21:53.534Z,0
2017-11-24T01:22:54.954Z,0
2017-11-24T01:23:56.365Z,0
2017-11-24T01:24:57.784Z,0
2017-11-24T01:25:59.194Z,0
2017-11-24T01:27:00.621Z,0
2017-11-24T01:28:02.037Z,0
2017-11-24T01:29:03.445Z,0
2017-11-24T01:30:04.871Z,0
2017-11-24T01:31:06.298Z,0
2017-11-24T01:32:07.706Z,0
2017-11-24T01:33:09.120Z,0
2017-11-24T01:34:10.534Z,0
2017-11-24T01:35:11.951Z,0
2017-11-24T01:36:13.363Z,0
2017-11-24T01:37:14.772Z,0
2017-11-24T01:38:16.210Z,0
2017-11-24T01:39:17.601Z,0
2017-11-24T01:40:19.018Z,0
2017-11-24T01:41:20.437Z,0
2017-11-24T01:42:21.850Z,0
2017-11-24T01:43:23.388Z,0
2017-11-24T01:44:24.804Z,0
2017-11-24T01:45:26.221Z,0
2017-11-24T01:46:27.639Z,0
2017-11-24T01:47:29.053Z,0
2017-11-24T01:48:30.472Z,0
2017-11-24T01:49:31.902Z,0
2017-11-24T01:50:33.301Z,0
2017-11-24T01:51:34.718Z,0
2017-11-24T01:52:36.125Z,0
2017-11-24T01:53:37.542Z,0
2017-11-24T01:54:38.958Z,0
2017-11-24T01:55:40.372Z,0
2017-11-24T01:56:41.791Z,0
2017-11-24T01:57:43.212Z,0
2017-11-24T01:58:44.625Z,0
2017-11-24T01:59:46.040Z,0
2017-11-24T02:00:47.456Z,0
2017-11-24T02:01:48.873Z,0
2017-11-24T02:02:50.284Z,0
2017-11-24T02:03:51.696Z,0
2017-11-24T02:04:53.115Z,0
2017-11-24T02:05:54.537Z,0
2017-11-24T02:06:55.960Z,0
2017-11-24T02:07:57.373Z,0
2017-11-24T02:08:58.787Z,0
2017-11-24T02:10:00.207Z,0
2017-11-24T02:11:01.619Z,0
2017-11-24T02:12:03.035Z,0
2017-11-24T02:13:04.447Z,0
2017-11-24T02:14:05.871Z,0
2017-11-24T02:15:07.291Z,0
2017-11-24T02:16:08.799Z,0
2017-11-24T02:17:10.213Z,0
2017-11-24T02:18:11.632Z,0
2017-11-24T02:19:13.032Z,0
2017-11-24T02:20:14.454Z,0
2017-11-24T02:21:15.865Z,0
2017-11-24T02:22:17.283Z,0
2017-11-24T02:23:18.708Z,0
2017-11-24T02:24:20.118Z,0
2017-11-24T02:25:21.540Z,0
2017-11-24T02:26:22.949Z,0
2017-11-24T02:27:24.359Z,0
2017-11-24T02:28:25.782Z,0
2017-11-24T02:29:27.306Z,0
2017-11-24T02:30:28.732Z,0
2017-11-24T02:31:30.150Z,0
2017-11-24T02:32:31.562Z,0
2017-11-24T02:33:32.972Z,0
2017-11-24T02:34:34.384Z,0
2017-11-24T02:35:35.796Z,0
2017-11-24T02:36:37.218Z,0
2017-11-24T02:37:38.635Z,0
2017-11-24T02:38:40.054Z,0
2017-11-24T02:39:41.470Z,0
2017-11-24T02:40:42.883Z,0
2017-11-24T02:41:44.304Z,0
2017-11-24T02:42:45.719Z,0
2017-11-24T02:43:47.131Z,0
2017-11-24T02:44:48.550Z,0
2017-11-24T02:45:49.966Z,0
2017-11-24T02:46:51.391Z,0
2017-11-24T02:47:52.765Z,0
2017-11-24T02:48:54.182Z,0
2017-11-24T02:49:55.593Z,0
2017-11-24T02:50:57.012Z,0
2017-11-24T02:51:58.419Z,0
2017-11-24T02:52:59.836Z,0
2017-11-24T02:54:01.249Z,0
2017-11-24T02:55:02.657Z,0
2017-11-24T02:56:04.081Z,0
2017-11-24T02:57:05.503Z,0
2017-11-24T02:58:06.910Z,0
2017-11-24T02:59:08.320Z,0
2017-11-24T03:00:09.730Z,0
2017-11-24T03:01:11.163Z,0
2017-11-24T03:02:12.563Z,0
2017-11-24T03:03:13.988Z,0
2017-11-24T03:04:15.393Z,0
2017-11-24T03:05:16.824Z,0
2017-11-24T03:06:18.238Z,0
2017-11-24T03:07:19.642Z,0
2017-11-24T03:08:21.059Z,0
2017-11-24T03:09:22.467Z,0
2017-11-24T03:10:23.880Z,0
2017-11-24T03:11:25.301Z,0
2017-11-24T03:12:26.711Z,0
2017-11-24T03:13:28.123Z,0
2017-11-24T03:14:29.537Z,0
2017-11-24T03:15:30.950Z,0
2017-11-24T03:16:32.366Z,0
2017-11-24T03:17:33.774Z,0
2017-11-24T03:18:35.192Z,0
2017-11-24T03:19:36.604Z,0
2017-11-24T03:20:38.014Z,0
2017-11-24T03:21:39.429Z,0
2017-11-24T03:22:40.840Z,0
2017-11-24T03:23:42.262Z,0
2017-11-24T03:24:43.684Z,0
2017-11-24T03:25:45.085Z,0
2017-11-24T03:26:46.545Z,0
2017-11-24T03:27:47.962Z,0
2017-11-24T03:28:49.372Z,0
2017-11-24T03:29:50.792Z,0
2017-11-24T03:30:52.209Z,0
2017-11-24T03:31:53.621Z,0
2017-11-24T03:32:55.041Z,12
2017-11-24T03:33:56.472Z,16
2017-11-24T03:34:57.887Z,16
2017-11-24T03:35:59.301Z,12
2017-11-24T03:37:00.716Z,12
2017-11-24T03:38:02.122Z,12
2017-11-24T03:39:03.548Z,12
2017-11-24T03:40:04.972Z,12
2017-11-24T03:41:06.384Z,12
2017-11-24T03:42:07.808Z,12
2017-11-24T03:43:09.221Z,12
2017-11-24T03:44:10.634Z,12
2017-11-24T03:45:12.053Z,12
2017-11-24T03:46:13.475Z,16
2017-11-24T03:47:14.954Z,12
2017-11-24T03:48:16.372Z,12
2017-11-24T03:49:17.787Z,12
2017-11-24T03:50:19.189Z,12
2017-11-24T03:51:20.614Z,12
2017-11-24T03:52:22.031Z,12
2017-11-24T03:53:23.448Z,12
2017-11-24T03:54:24.870Z,12
2017-11-24T03:55:26.281Z,12
2017-11-24T03:56:27.700Z,12
2017-11-24T03:57:29.111Z,12
2017-11-24T03:58:30.536Z,12
2017-11-24T03:59:31.966Z,8
2017-11-24T04:00:33.352Z,0
2017-11-24T04:01:34.770Z,0
2017-11-24T04:02:36.199Z,0
2017-11-24T04:03:37.629Z,0
2017-11-24T04:04:39.053Z,0
2017-11-24T04:05:40.457Z,0
2017-11-24T04:06:41.872Z,0
2017-11-24T04:07:43.290Z,0
2017-11-24T04:08:44.710Z,0
2017-11-24T04:09:46.136Z,0
2017-11-24T04:10:47.546Z,0
2017-11-24T04:11:48.949Z,0
2017-11-24T04:12:50.439Z,0
2017-11-24T04:13:51.857Z,0
2017-11-24T04:14:53.278Z,0
2017-11-24T04:15:54.692Z,0
2017-11-24T04:16:57.029Z,0
2017-11-24T04:17:58.446Z,0
2017-11-24T04:18:59.858Z,0
2017-11-24T04:20:01.269Z,0
2017-11-24T04:21:02.683Z,0
2017-11-24T04:22:04.104Z,0
2017-11-24T04:23:05.519Z,0
2017-11-24T04:24:06.932Z,0
2017-11-24T04:25:08.346Z,0
2017-11-24T04:26:09.761Z,0
2017-11-24T04:27:11.178Z,0
2017-11-24T04:28:12.603Z,0
2017-11-24T04:29:14.014Z,0
2017-11-24T04:30:15.433Z,0
2017-11-24T04:31:16.844Z,0
2017-11-24T04:32:18.255Z,0
2017-11-24T04:33:19.673Z,0
2017-11-24T04:34:21.087Z,0
2017-11-24T04:35:22.502Z,0
2017-11-24T04:36:23.921Z,0
2017-11-24T04:37:25.330Z,0
2017-11-24T04:38:26.748Z,0
2017-11-24T04:39:28.166Z,0
2017-11-24T04:40:29.580Z,0
2017-11-24T04:41:30.997Z,0
2017-11-24T04:42:32.418Z,0
2017-11-24T04:43:33.831Z,0
2017-11-24T04:44:35.324Z,0
2017-11-24T04:45:36.744Z,0
2017-11-24T04:46:38.166Z,0
2017-11-24T04:47:39.573Z,0
2017-11-24T04:48:40.997Z,0
2017-11-24T04:49:42.412Z,0
2017-11-24T04:50:43.822Z,0
2017-11-24T04:51:45.241Z,0
2017-11-24T04:52:46.657Z,0
2017-11-24T04:53:48.075Z,0
2017-11-24T04:54:49.491Z,0
2017-11-24T04:55:50.908Z,0
2017-11-24T04:56:52.316Z,0
2017-11-24T04:57:53.770Z,0
2017-11-24T04:58:55.181Z,0
2017-11-24T04:59:56.597Z,0
2017-11-24T05:00:58.013Z,0
2017-11-24T05:01:59.428Z,0
2017-11-24T05:03:00.840Z,0
2017-11-24T05:04:02.256Z,0
2017-11-24T05:05:03.673Z,0
2017-11-24T05:06:05.082Z,0
2017-11-24T05:07:06.499Z,0
2017-11-24T05:08:07.912Z,0
2017-11-24T05:09:09.328Z,0
2017-11-24T05:10:10.741Z,0
2017-11-24T05:11:12.202Z,0
2017-11-24T05:12:13.612Z,0
2017-11-24T05:13:15.029Z,0
2017-11-24T05:14:16.443Z,0
2017-11-24T05:15:17.910Z,0
2017-11-24T05:16:19.319Z,0
2017-11-24T05:17:20.743Z,0
2017-11-24T05:18:22.161Z,0
2017-11-24T05:19:23.581Z,0
2017-11-24T05:20:24.979Z,0
2017-11-24T05:21:26.394Z,0
2017-11-24T05:22:27.807Z,0
2017-11-24T05:23:29.226Z,0
2017-11-24T05:24:30.643Z,0
2017-11-24T05:25:32.063Z,0
2017-11-24T05:26:33.478Z,0
2017-11-24T05:27:34.880Z,0
2017-11-24T05:28:36.294Z,0
2017-11-24T05:29:37.712Z,0
2017-11-24T05:30:39.134Z,0
2017-11-24T05:31:40.542Z,0
2017-11-24T05:32:41.954Z,0
2017-11-24T05:33:43.375Z,0
2017-11-24T05:34:44.780Z,0
2017-11-24T05:35:46.200Z,0
2017-11-24T05:36:47.723Z,0
2017-11-24T05:37:49.143Z,0
2017-11-24T05:38:50.567Z,0
2017-11-24T05:39:51.977Z,0
2017-11-24T05:40:53.391Z,0
2017-11-24T05:41:54.804Z,0
2017-11-24T05:42:56.214Z,0
2017-11-24T05:43:57.623Z,0
2017-11-24T05:44:59.044Z,0
2017-11-24T05:46:00.457Z,0
2017-11-24T05:47:01.876Z,0
2017-11-24T05:48:03.282Z,0
2017-11-24T05:49:04.700Z,0
2017-11-24T05:50:06.113Z,0
2017-11-24T05:51:07.521Z,0
2017-11-24T05:52:08.935Z,0
2017-11-24T05:53:10.353Z,0
2017-11-24T05:54:11.774Z,0
2017-11-24T05:55:13.174Z,0
2017-11-24T05:56:14.589Z,0
2017-11-24T05:57:16.009Z,0
2017-11-24T05:58:17.424Z,0
2017-11-24T05:59:18.839Z,0
2017-11-24T06:00:20.250Z,0
2017-11-24T06:01:21.660Z,0
2017-11-24T06:02:23.079Z,0
2017-11-24T06:03:24.494Z,0
2017-11-24T06:04:25.921Z,0
2017-11-24T06:05:27.319Z,0
2017-11-24T06:06:28.727Z,0
2017-11-24T06:07:30.145Z,0
2017-11-24T06:08:31.550Z,0
2017-11-24T06:09:32.972Z,0
2017-11-24T06:10:34.393Z,0
2017-11-24T06:11:35.810Z,0
2017-11-24T06:12:37.221Z,0
2017-11-24T06:13:38.632Z,0
2017-11-24T06:14:40.051Z,0
2017-11-24T06:15:41.465Z,0
2017-11-24T06:16:42.882Z,0
2017-11-24T06:17:44.301Z,0
2017-11-24T06:18:45.717Z,0
2017-11-24T06:19:47.143Z,0
2017-11-24T06:20:48.668Z,0
2017-11-24T06:21:50.085Z,0
2017-11-24T06:22:51.486Z,0
2017-11-24T06:23:52.908Z,0
2017-11-24T06:24:54.320Z,0
2017-11-24T06:25:55.747Z,0
2017-11-24T06:26:57.155Z,0
2017-11-24T06:27:58.640Z,0
2017-11-24T06:29:00.050Z,0
2017-11-24T06:30:01.475Z,0
2017-11-24T06:31:02.880Z,0
2017-11-24T06:32:04.302Z,0
2017-11-24T06:33:05.709Z,0
2017-11-24T06:34:07.128Z,0
2017-11-24T06:35:08.547Z,0
2017-11-24T06:36:09.964Z,0
2017-11-24T06:37:11.378Z,0
2017-11-24T06:38:12.789Z,0
2017-11-24T06:39:14.201Z,0
2017-11-24T06:40:15.611Z,0
2017-11-24T06:41:17.032Z,0
2017-11-24T06:42:18.454Z,0
2017-11-24T06:43:19.859Z,0
2017-11-24T06:44:21.266Z,0
2017-11-24T06:45:22.684Z,0
2017-11-24T06:46:24.087Z,0
2017-11-24T06:47:25.501Z,0
2017-11-24T06:48:26.913Z,4
2017-11-24T06:49:28.324Z,4
2017-11-24T06:50:29.743Z,4
2017-11-24T06:51:31.152Z,0
2017-11-24T06:52:32.564Z,4
2017-11-24T06:53:34.004Z,4
2017-11-24T06:54:35.425Z,4
2017-11-24T06:55:36.823Z,4
2017-11-24T06:56:38.238Z,8
2017-11-24T06:57:39.654Z,8
2017-11-24T06:58:41.069Z,8
2017-11-24T06:59:42.495Z,8
2017-11-24T07:00:43.904Z,12
2017-11-24T07:01:45.313Z,8
2017-11-24T07:02:46.718Z,8
2017-11-24T07:03:48.129Z,8
2017-11-24T07:04:49.548Z,8
2017-11-24T07:05:50.957Z,8
2017-11-24T07:06:52.382Z,12
2017-11-24T07:07:53.792Z,12
2017-11-24T07:08:55.208Z,12
2017-11-24T07:09:56.622Z,8
2017-11-24T07:10:58.042Z,8
2017-11-24T07:11:59.460Z,12
2017-11-24T07:13:00.869Z,16
2017-11-24T07:14:02.293Z,12
2017-11-24T07:15:03.714Z,8
2017-11-24T07:16:05.132Z,8
2017-11-24T07:17:06.540Z,12
2017-11-24T07:18:07.964Z,12
2017-11-24T07:19:09.375Z,12
2017-11-24T07:20:10.798Z,12
2017-11-24T07:21:12.202Z,4
2017-11-24T07:22:13.614Z,8
2017-11-24T07:23:15.031Z,4
2017-11-24T07:24:16.432Z,8
2017-11-24T07:25:17.849Z,4
2017-11-24T07:26:19.268Z,8
2017-11-24T07:27:20.670Z,8
2017-11-24T07:28:22.093Z,12
2017-11-24T07:29:23.494Z,8
2017-11-24T07:30:24.907Z,12
2017-11-24T07:31:26.335Z,12
2017-11-24T07:32:27.724Z,12
2017-11-24T07:33:29.150Z,16
2017-11-24T07:34:30.562Z,12
2017-11-24T07:35:31.968Z,12
2017-11-24T07:36:33.431Z,16
2017-11-24T07:37:34.853Z,24
2017-11-24T07:38:36.266Z,36
2017-11-24T07:39:37.687Z,44
2017-11-24T07:40:39.098Z,44
2017-11-24T07:41:40.569Z,48
2017-11-24T07:42:41.983Z,52
2017-11-24T07:43:43.415Z,56
2017-11-24T07:44:44.825Z,56
2017-11-24T07:45:46.274Z,44
2017-11-24T07:46:47.698Z,36
2017-11-24T07:47:49.114Z,32
2017-11-24T07:48:50.536Z,36
2017-11-24T07:49:51.946Z,36
2017-11-24T07:50:53.372Z,40
2017-11-24T07:51:54.780Z,44
2017-11-24T07:52:56.202Z,48
2017-11-24T07:53:57.608Z,44
2017-11-24T07:54:59.025Z,32
2017-11-24T07:56:00.441Z,24
2017-11-24T07:57:01.866Z,24
2017-11-24T07:58:03.286Z,28
2017-11-24T07:59:04.697Z,28
2017-11-24T08:00:06.113Z,28
2017-11-24T08:01:07.538Z,32
2017-11-24T08:02:08.950Z,32
2017-11-24T08:03:10.368Z,36
2017-11-24T08:04:11.777Z,36
2017-11-24T08:05:13.193Z,36
2017-11-24T08:06:14.613Z,36
2017-11-24T08:07:16.027Z,32
2017-11-24T08:08:17.448Z,32
2017-11-24T08:09:18.870Z,32
2017-11-24T08:10:20.289Z,32
2017-11-24T08:11:21.705Z,28
2017-11-24T08:12:23.133Z,32
2017-11-24T08:13:24.540Z,32
2017-11-24T08:14:25.953Z,36
2017-11-24T08:15:27.372Z,36
2017-11-24T08:16:28.782Z,40
2017-11-24T08:17:30.201Z,48
2017-11-24T08:18:31.621Z,52
2017-11-24T08:19:33.036Z,64
2017-11-24T08:20:34.451Z,72
2017-11-24T08:21:35.871Z,80
2017-11-24T08:22:37.284Z,80
2017-11-24T08:23:38.702Z,76
2017-11-24T08:24:40.122Z,84
2017-11-24T08:25:41.531Z,92
2017-11-24T08:26:42.958Z,88
2017-11-24T08:27:44.380Z,72
2017-11-24T08:28:45.859Z,64
2017-11-24T08:29:47.280Z,56
2017-11-24T08:30:48.691Z,56
2017-11-24T08:31:50.132Z,56
2017-11-24T08:32:51.550Z,52
2017-11-24T08:33:52.960Z,52
2017-11-24T08:34:54.378Z,64
2017-11-24T08:35:55.791Z,72
2017-11-24T08:36:57.210Z,88
2017-11-24T08:37:58.628Z,112
2017-11-24T08:39:00.052Z,136
2017-11-24T08:40:01.472Z,140
2017-11-24T08:41:02.900Z,128
2017-11-24T08:42:04.324Z,112
2017-11-24T08:43:05.741Z,104
2017-11-24T08:44:07.177Z,100
2017-11-24T08:45:08.585Z,96
2017-11-24T08:46:10.560Z,92
2017-11-24T08:47:11.979Z,96
2017-11-24T08:48:13.392Z,124
2017-11-24T08:49:14.804Z,152
2017-11-24T08:50:16.212Z,184
2017-11-24T08:51:17.793Z,188
2017-11-24T08:52:19.215Z,172
2017-11-24T08:53:20.752Z,204
2017-11-24T08:54:22.168Z,212
2017-11-24T08:55:23.655Z,176
2017-11-24T08:56:25.174Z,48
2017-11-24T08:57:26.577Z,200
2017-11-24T08:58:28.057Z,228
2017-11-24T08:59:29.557Z,240
2017-11-24T09:00:30.908Z,256
2017-11-24T09:01:32.330Z,240
2017-11-24T09:02:33.736Z,204
2017-11-24T09:03:35.332Z,212
2017-11-24T09:04:36.900Z,196
2017-11-24T09:05:38.310Z,184
2017-11-24T09:06:39.732Z,176
2017-11-24T09:07:41.149Z,156
2017-11-24T09:08:42.586Z,140
2017-11-24T09:09:43.990Z,140
2017-11-24T09:10:45.724Z,144
2017-11-24T09:11:47.557Z,140
2017-11-24T09:12:49.029Z,128
2017-11-24T09:13:51.127Z,124
2017-11-24T09:14:52.608Z,116
2017-11-24T09:15:54.153Z,128
2017-11-24T09:16:55.719Z,144
2017-11-24T09:17:57.307Z,140
2017-11-24T09:18:58.782Z,132
2017-11-24T09:20:00.423Z,136
2017-11-24T09:21:02.088Z,116
2017-11-24T09:22:03.671Z,88
2017-11-24T09:23:05.250Z,80
2017-11-24T09:24:06.903Z,8
2017-11-24T09:25:08.410Z,4
2017-11-24T09:26:09.888Z,8
2017-11-24T09:27:11.384Z,4
2017-11-24T09:28:12.848Z,8
2017-11-24T09:29:14.363Z,116
2017-11-24T09:30:15.817Z,124
2017-11-24T09:31:17.311Z,120
2017-11-24T09:32:18.721Z,120
2017-11-24T09:33:20.143Z,100
2017-11-24T09:34:21.556Z,100
2017-11-24T09:35:22.974Z,104
2017-11-24T09:36:24.393Z,116
2017-11-24T09:37:25.805Z,124
2017-11-24T09:38:27.229Z,140
2017-11-24T09:39:28.658Z,156
2017-11-24T09:40:30.079Z,148
2017-11-24T09:41:31.498Z,148
2017-11-24T09:42:32.919Z,160
2017-11-24T09:43:34.342Z,168
2017-11-24T09:44:35.765Z,164
2017-11-24T09:45:37.178Z,16
2017-11-24T09:46:38.612Z,44
2017-11-24T09:47:40.028Z,48
2017-11-24T09:48:41.443Z,20
2017-11-24T09:49:42.861Z,16
2017-11-24T09:50:44.276Z,0
2017-11-24T09:51:45.690Z,4
2017-11-24T09:52:47.121Z,4
2017-11-24T09:53:48.511Z,4
2017-11-24T09:54:49.930Z,4
2017-11-24T09:55:51.350Z,4
2017-11-24T09:56:52.783Z,0
2017-11-24T09:57:54.196Z,0
2017-11-24T09:58:55.609Z,0
2017-11-24T09:59:57.027Z,0
2017-11-24T10:00:58.438Z,4
2017-11-24T10:01:59.859Z,68
2017-11-24T10:03:01.278Z,176
2017-11-24T10:04:02.707Z,176
2017-11-24T10:05:04.135Z,200
2017-11-24T10:06:05.546Z,220
2017-11-24T10:07:06.966Z,236
2017-11-24T10:08:08.701Z,240
2017-11-24T10:09:10.035Z,236
2017-11-24T10:10:11.455Z,232
2017-11-24T10:11:13.002Z,220
2017-11-24T10:12:14.532Z,220
2017-11-24T10:13:15.942Z,192
2017-11-24T10:14:17.363Z,176
2017-11-24T10:15:18.800Z,176
2017-11-24T10:16:20.230Z,188
2017-11-24T10:17:21.649Z,220
2017-11-24T10:18:23.062Z,256
2017-11-24T10:19:24.470Z,320
2017-11-24T10:20:25.889Z,372
2017-11-24T10:21:27.353Z,456
2017-11-24T10:22:28.769Z,560
2017-11-24T10:23:30.197Z,556
2017-11-24T10:24:32.271Z,480
2017-11-24T10:25:33.694Z,396
2017-11-24T10:26:35.115Z,420
2017-11-24T10:27:36.536Z,424
2017-11-24T10:28:37.944Z,376
2017-11-24T10:29:39.368Z,372
2017-11-24T10:30:40.794Z,396
2017-11-24T10:31:42.214Z,372
2017-11-24T10:32:43.627Z,364
2017-11-24T10:33:45.047Z,352
2017-11-24T10:34:46.476Z,396
2017-11-24T10:35:47.884Z,404
2017-11-24T10:36:49.290Z,416
2017-11-24T10:37:50.710Z,436
2017-11-24T10:38:52.124Z,436
2017-11-24T10:39:53.543Z,400
2017-11-24T10:40:54.953Z,384
2017-11-24T10:41:56.373Z,368
2017-11-24T10:42:57.793Z,364
2017-11-24T10:43:59.223Z,364
2017-11-24T10:45:00.633Z,344
2017-11-24T10:46:02.166Z,340
2017-11-24T10:47:03.594Z,336
2017-11-24T10:48:05.017Z,324
2017-11-24T10:49:06.432Z,312
2017-11-24T10:50:07.841Z,300
2017-11-24T10:51:09.265Z,288
2017-11-24T10:52:10.679Z,284
2017-11-24T10:53:12.087Z,280
2017-11-24T10:54:13.502Z,276
2017-11-24T10:55:14.925Z,308
2017-11-24T10:56:16.337Z,344
2017-11-24T10:57:17.752Z,340
2017-11-24T10:58:19.169Z,316
2017-11-24T10:59:20.589Z,268
2017-11-24T11:00:22.014Z,252
2017-11-24T11:01:23.435Z,260
2017-11-24T11:02:24.863Z,228
2017-11-24T11:03:26.282Z,200
2017-11-24T11:04:27.698Z,196
2017-11-24T11:05:29.126Z,188
2017-11-24T11:06:30.551Z,196
2017-11-24T11:07:31.972Z,196
2017-11-24T11:08:33.382Z,192
2017-11-24T11:09:34.813Z,152
2017-11-24T11:10:36.223Z,160
2017-11-24T11:11:37.641Z,168
2017-11-24T11:12:39.058Z,176
2017-11-24T11:13:40.471Z,180
2017-11-24T11:14:41.888Z,176
2017-11-24T11:15:43.319Z,176
2017-11-24T11:16:45.514Z,196
2017-11-24T11:17:46.932Z,188
2017-11-24T11:18:48.352Z,120
2017-11-24T11:19:49.761Z,192
2017-11-24T11:20:51.187Z,188
2017-11-24T11:21:52.597Z,204
2017-11-24T11:22:54.012Z,196
2017-11-24T11:23:55.432Z,160
2017-11-24T11:24:56.847Z,144
2017-11-24T11:25:58.270Z,160
2017-11-24T11:26:59.679Z,180
2017-11-24T11:28:01.088Z,176
2017-11-24T11:29:02.506Z,204
2017-11-24T11:30:03.924Z,208
2017-11-24T11:31:05.343Z,208
2017-11-24T11:32:06.762Z,220
2017-11-24T11:33:08.181Z,220
2017-11-24T11:34:09.604Z,276
2017-11-24T11:35:11.018Z,332
2017-11-24T11:36:12.423Z,388
2017-11-24T11:37:13.843Z,464
2017-11-24T11:38:15.256Z,420
2017-11-24T11:39:16.691Z,352
2017-11-24T11:40:18.098Z,336
2017-11-24T11:41:19.515Z,368
2017-11-24T11:42:20.951Z,304
2017-11-24T11:43:22.366Z,252
2017-11-24T11:44:23.782Z,240
2017-11-24T11:45:25.202Z,188
2017-11-24T11:46:26.621Z,136
2017-11-24T11:47:28.033Z,112
2017-11-24T11:48:30.420Z,104
2017-11-24T11:49:31.842Z,84
2017-11-24T11:50:33.263Z,28
2017-11-24T11:51:34.681Z,20
2017-11-24T11:52:36.098Z,132
2017-11-24T11:53:37.509Z,164
2017-11-24T11:54:38.933Z,204
2017-11-24T11:55:40.349Z,204
2017-11-24T11:56:41.770Z,184
2017-11-24T11:57:43.180Z,172
2017-11-24T11:58:44.615Z,148
2017-11-24T11:59:46.034Z,80
2017-11-24T12:00:47.443Z,140
2017-11-24T12:01:48.859Z,152
2017-11-24T12:02:50.280Z,144
2017-11-24T12:03:51.699Z,148
2017-11-24T12:04:53.106Z,168
2017-11-24T12:05:54.523Z,176
2017-11-24T12:06:55.931Z,192
2017-11-24T12:07:57.352Z,208
2017-11-24T12:08:58.805Z,240
2017-11-24T12:10:00.205Z,312
2017-11-24T12:11:01.624Z,336
2017-11-24T12:12:03.042Z,308
2017-11-24T12:13:04.453Z,300
2017-11-24T12:14:05.870Z,332
2017-11-24T12:15:07.283Z,344
2017-11-24T12:16:08.695Z,300
2017-11-24T12:17:10.104Z,244
2017-11-24T12:18:11.531Z,240
2017-11-24T12:19:12.947Z,252
2017-11-24T12:20:14.373Z,256
2017-11-24T12:21:15.781Z,232
2017-11-24T12:22:17.178Z,240
2017-11-24T12:23:18.590Z,240
2017-11-24T12:24:20.012Z,244
2017-11-24T12:25:21.431Z,252
2017-11-24T12:26:22.846Z,252
2017-11-24T12:27:24.262Z,240
2017-11-24T12:28:25.685Z,204
2017-11-24T12:29:27.104Z,168
2017-11-24T12:30:28.523Z,156
2017-11-24T12:31:29.943Z,152
2017-11-24T12:32:31.365Z,136
2017-11-24T12:33:32.783Z,120
2017-11-24T12:34:34.213Z,152
2017-11-24T12:35:35.644Z,144
2017-11-24T12:36:37.062Z,160
2017-11-24T12:37:38.483Z,136
2017-11-24T12:38:39.909Z,112
2017-11-24T12:39:41.342Z,100
2017-11-24T12:40:42.752Z,84
2017-11-24T12:41:44.174Z,92
2017-11-24T12:42:45.584Z,92
2017-11-24T12:43:47.000Z,96
2017-11-24T12:44:48.424Z,112
2017-11-24T12:45:49.846Z,128
2017-11-24T12:46:51.264Z,144
2017-11-24T12:47:52.683Z,144
2017-11-24T12:48:54.096Z,120
2017-11-24T12:49:55.516Z,180
2017-11-24T12:50:56.945Z,180
2017-11-24T12:51:58.351Z,184
2017-11-24T12:52:59.769Z,240
2017-11-24T12:54:01.191Z,260
2017-11-24T12:55:02.613Z,276
2017-11-24T12:56:04.028Z,248
2017-11-24T12:57:05.441Z,252
2017-11-24T12:58:06.863Z,284
2017-11-24T12:59:08.275Z,308
2017-11-24T13:00:09.700Z,296
2017-11-24T13:01:11.117Z,228
2017-11-24T13:02:12.534Z,172
2017-11-24T13:03:13.950Z,180
2017-11-24T13:04:15.366Z,196
2017-11-24T13:05:16.782Z,176
2017-11-24T13:06:18.198Z,152
2017-11-24T13:07:19.614Z,124
2017-11-24T13:08:21.034Z,100
2017-11-24T13:09:22.447Z,116
2017-11-24T13:10:23.870Z,116
2017-11-24T13:11:25.286Z,156
2017-11-24T13:12:26.705Z,156
2017-11-24T13:13:28.125Z,192
2017-11-24T13:14:29.536Z,256
2017-11-24T13:15:30.964Z,264
2017-11-24T13:16:32.382Z,292
2017-11-24T13:17:33.801Z,292
2017-11-24T13:18:35.213Z,288
2017-11-24T13:19:36.636Z,316
2017-11-24T13:20:38.049Z,316
2017-11-24T13:21:39.470Z,300
2017-11-24T13:22:40.889Z,312
2017-11-24T13:23:42.314Z,304
2017-11-24T13:24:43.727Z,304
2017-11-24T13:25:45.139Z,288
2017-11-24T13:26:46.561Z,260
2017-11-24T13:27:47.975Z,248
2017-11-24T13:28:49.393Z,268
2017-11-24T13:29:50.826Z,276
2017-11-24T13:30:52.248Z,252
2017-11-24T13:31:53.656Z,264
2017-11-24T13:32:55.081Z,340
2017-11-24T13:33:56.500Z,548
2017-11-24T13:34:57.911Z,864
2017-11-24T13:35:59.341Z,1700
2017-11-24T13:37:00.772Z,2264
2017-11-24T13:38:02.197Z,2024
2017-11-24T13:39:03.613Z,1208
2017-11-24T13:40:05.043Z,1100
2017-11-24T13:41:06.465Z,1404
2017-11-24T13:42:07.876Z,1704
2017-11-24T13:43:09.299Z,1648
2017-11-24T13:44:10.717Z,1796
2017-11-24T13:45:12.217Z,3568
2017-11-24T13:46:13.630Z,3968
2017-11-24T13:47:15.055Z,3044
2017-11-24T13:48:16.473Z,4552
2017-11-24T13:49:17.897Z,10828
2017-11-24T13:50:19.317Z,11464
2017-11-24T13:51:20.740Z,6416
2017-11-24T13:52:22.300Z,3224
2017-11-24T13:53:23.716Z,3564
2017-11-24T13:54:25.141Z,3956
2017-11-24T13:55:26.569Z,3696
2017-11-24T13:56:27.997Z,3040
2017-11-24T13:57:29.424Z,2920
2017-11-24T13:58:30.847Z,2864
2017-11-24T13:59:32.265Z,2416
2017-11-24T14:00:33.673Z,20
2017-11-24T14:01:35.088Z,0
2017-11-24T14:02:36.493Z,0
2017-11-24T14:03:37.929Z,0
2017-11-24T14:04:39.351Z,4
2017-11-24T14:05:40.738Z,4
2017-11-24T14:06:42.144Z,4
2017-11-24T14:07:43.558Z,4
2017-11-24T14:08:44.980Z,4
2017-11-24T14:09:46.402Z,4
2017-11-24T14:10:47.830Z,4
2017-11-24T14:11:49.243Z,572
2017-11-24T14:12:50.658Z,172
2017-11-24T14:13:52.075Z,164
2017-11-24T14:14:53.498Z,172
2017-11-24T14:15:54.940Z,172
2017-11-24T14:16:56.863Z,132
2017-11-24T14:17:58.287Z,112
2017-11-24T14:19:00.222Z,92
2017-11-24T14:20:01.644Z,88
2017-11-24T14:21:03.065Z,104
2017-11-24T14:22:04.485Z,112
2017-11-24T14:23:05.918Z,140
2017-11-24T14:24:07.320Z,144
2017-11-24T14:25:08.750Z,108
2017-11-24T14:26:10.168Z,96
2017-11-24T14:27:11.576Z,80
2017-11-24T14:28:12.989Z,72
2017-11-24T14:29:14.409Z,64
2017-11-24T14:30:15.845Z,52
2017-11-24T14:31:17.264Z,56
2017-11-24T14:32:18.694Z,168
2017-11-24T14:33:20.105Z,168
2017-11-24T14:34:21.518Z,180
2017-11-24T14:35:22.933Z,184
2017-11-24T14:36:24.347Z,196
2017-11-24T14:37:25.762Z,208
2017-11-24T14:38:27.181Z,208
2017-11-24T14:39:28.598Z,216
2017-11-24T14:40:30.536Z,180
2017-11-24T14:41:31.964Z,152